Time;durP1;ratioP1;P1;durP2;ratioP2;P2;SDS_P1;SDS_P2;PMS_P1;PMS_P2;Temp;Humidity;BMP_temperature;BMP_pressure;BME280_temperature;BME280_humidity;BME280_pressure;Samples;Min_cycle;Max_cycle;Signal;HPM_P1;HPM_P2
2023/01/23 00:01:24;;;;;;;23.73;22.10;;;2.50;91.40;;;;;;5013196;28;20197;-90
2023/01/23 00:03:49;;;;;;;25.80;23.50;;;2.60;91.50;;;;;;5013986;28;20252;-89
2023/01/23 00:06:16;;;;;;;24.50;22.77;;;2.50;91.50;;;;;;5015875;28;20197;-90
2023/01/23 00:08:43;;;;;;;24.17;22.10;;;2.50;91.50;;;;;;5016079;28;20679;-90
2023/01/23 00:11:35;;;;;;;24.00;22.33;;;2.50;91.50;;;;;;5015869;28;20177;-90
2023/01/23 00:14:02;;;;;;;23.77;21.33;;;2.50;91.50;;;;;;5015718;28;20257;-90
2023/01/23 00:16:31;;;;;;;22.03;20.50;;;2.50;91.50;;;;;;5015631;28;20189;-90
2023/01/23 00:18:57;;;;;;;20.80;18.90;;;2.50;91.50;;;;;;5015831;28;20774;-90
2023/01/23 00:21:26;;;;;;;22.10;20.47;;;2.50;91.50;;;;;;5016666;28;20197;-90
2023/01/23 00:23:54;;;;;;;22.90;21.10;;;2.50;91.50;;;;;;5015895;28;20181;-90
2023/01/23 00:26:26;;;;;;;22.33;20.93;;;2.50;91.40;;;;;;5016325;28;20212;-90
2023/01/23 00:28:52;;;;;;;22.33;20.83;;;2.50;91.50;;;;;;5015931;28;20198;-90
2023/01/23 00:31:24;;;;;;;21.47;19.90;;;2.50;91.40;;;;;;5015413;28;20200;-90
2023/01/23 00:33:54;;;;;;;21.57;20.20;;;2.50;91.40;;;;;;5015368;28;20185;-90
2023/01/23 00:36:19;;;;;;;21.63;20.20;;;2.50;91.30;;;;;;5015316;28;20181;-90
2023/01/23 00:38:45;;;;;;;20.07;18.63;;;2.50;91.30;;;;;;5016971;28;20682;-90
2023/01/23 00:41:11;;;;;;;21.17;19.77;;;2.50;91.30;;;;;;5015197;28;20251;-90
2023/01/23 00:43:37;;;;;;;20.43;19.03;;;2.50;91.20;;;;;;5016424;28;20237;-90
2023/01/23 00:46:03;;;;;;;19.90;18.30;;;2.40;91.20;;;;;;5016645;28;20197;-90
2023/01/23 00:48:28;;;;;;;21.40;20.00;;;2.40;91.20;;;;;;5015394;28;20262;-89
2023/01/23 00:50:54;;;;;;;19.90;18.60;;;2.50;91.20;;;;;;5015131;28;20259;-90
2023/01/23 00:53:20;;;;;;;21.10;19.57;;;2.50;91.20;;;;;;5015026;28;20208;-90
2023/01/23 00:55:45;;;;;;;22.50;20.33;;;2.50;91.20;;;;;;5015757;28;20269;-90
2023/01/23 00:58:11;;;;;;;23.23;21.23;;;2.40;91.30;;;;;;5016038;28;20280;-89
2023/01/23 01:00:38;;;;;;;23.57;21.83;;;2.40;91.30;;;;;;5016303;28;20169;-90
2023/01/23 01:03:04;;;;;;;24.53;22.60;;;2.50;91.30;;;;;;5016017;28;20181;-90
2023/01/23 01:05:30;;;;;;;23.67;21.83;;;2.40;91.40;;;;;;5014856;28;20181;-90
2023/01/23 01:07:56;;;;;;;23.90;22.23;;;2.40;91.40;;;;;;5014921;28;20754;-90
2023/01/23 01:10:21;;;;;;;23.90;22.20;;;2.40;91.40;;;;;;5014820;28;20268;-90
2023/01/23 01:12:48;;;;;;;24.20;22.37;;;2.40;91.50;;;;;;5015138;28;20211;-90
2023/01/23 01:15:14;;;;;;;26.07;24.17;;;2.30;91.50;;;;;;5014267;28;20177;-90
2023/01/23 01:17:40;;;;;;;25.50;23.33;;;2.40;91.50;;;;;;5014705;28;20169;-90
2023/01/23 01:20:06;;;;;;;25.97;23.80;;;2.40;91.50;;;;;;5014538;28;20635;-89
2023/01/23 01:22:32;;;;;;;25.07;23.07;;;2.30;91.50;;;;;;5014335;28;20200;-90
2023/01/23 01:24:58;;;;;;;27.00;24.77;;;2.30;91.60;;;;;;5014422;28;20170;-90
2023/01/23 01:27:24;;;;;;;29.30;27.03;;;2.30;91.60;;;;;;5014412;28;20182;-89
2023/01/23 01:29:49;;;;;;;28.90;26.07;;;2.30;91.70;;;;;;5014456;28;20193;-90
2023/01/23 01:32:16;;;;;;;28.10;26.20;;;2.30;91.70;;;;;;5014660;28;20201;-90
2023/01/23 01:34:42;;;;;;;28.87;26.80;;;2.30;91.80;;;;;;5015426;28;20268;-90
2023/01/23 01:37:07;;;;;;;27.17;24.73;;;2.30;91.80;;;;;;5014282;28;20642;-90
2023/01/23 01:39:33;;;;;;;30.03;27.87;;;2.30;91.90;;;;;;5014097;28;20205;-90
2023/01/23 01:41:58;;;;;;;30.33;28.23;;;2.30;91.90;;;;;;5015283;28;20213;-89
2023/01/23 01:44:24;;;;;;;30.13;27.83;;;2.30;92.00;;;;;;5014175;28;20177;-89
2023/01/23 01:46:50;;;;;;;31.13;28.73;;;2.30;92.00;;;;;;5015095;28;20234;-89
2023/01/23 01:49:30;;;;;;;29.37;27.33;;;2.30;92.10;;;;;;5013857;28;20211;-89
2023/01/23 01:52:04;;;;;;;30.37;28.30;;;2.30;92.10;;;;;;5015232;28;20165;-89
2023/01/23 01:54:44;;;;;;;31.27;28.93;;;2.20;92.10;;;;;;5015263;28;20161;-90
2023/01/23 01:57:22;;;;;;;32.50;30.20;;;2.20;92.20;;;;;;5015066;28;20166;-90
2023/01/23 01:59:56;;;;;;;29.90;27.80;;;2.20;92.20;;;;;;5014133;28;20196;-89
2023/01/23 02:02:27;;;;;;;30.37;28.30;;;2.20;92.20;;;;;;5013717;28;20308;-90
2023/01/23 02:05:06;;;;;;;31.67;29.13;;;2.20;92.20;;;;;;5013652;28;20632;-90
2023/01/23 02:07:39;;;;;;;34.50;31.53;;;2.20;92.20;;;;;;5014011;28;20201;-90
2023/01/23 02:10:06;;;;;;;33.63;30.97;;;2.10;92.30;;;;;;5015016;28;20162;-90
2023/01/23 02:12:34;;;;;;;33.30;30.63;;;2.20;92.30;;;;;;5014619;28;20177;-90
2023/01/23 02:15:01;;;;;;;33.53;31.03;;;2.20;92.40;;;;;;5013677;28;20694;-89
2023/01/23 02:17:27;;;;;;;35.10;32.60;;;2.10;92.40;;;;;;5013501;28;20180;-90
2023/01/23 02:20:11;;;;;;;33.53;30.77;;;2.10;92.40;;;;;;5013403;28;20552;-90
2023/01/23 02:22:52;;;;;;;34.33;32.03;;;2.10;92.40;;;;;;5013264;28;20280;-90
2023/01/23 02:25:42;;;;;;;35.00;32.43;;;2.10;92.50;;;;;;5014475;28;20216;-90
2023/01/23 02:28:09;;;;;;;34.17;31.57;;;2.10;92.50;;;;;;5014392;28;20593;-90
2023/01/23 02:30:36;;;;;;;32.97;30.63;;;2.10;92.50;;;;;;5013074;28;20174;-90
2023/01/23 02:33:30;;;;;;;36.37;33.40;;;2.10;92.60;;;;;;5013421;28;20183;-90
2023/01/23 02:36:00;;;;;;;37.27;34.40;;;2.00;92.60;;;;;;5013098;28;20173;-90
2023/01/23 02:38:30;;;;;;;36.33;33.63;;;2.10;92.70;;;;;;5012975;28;20554;-90
2023/01/23 02:41:00;;;;;;;37.00;34.43;;;2.10;92.70;;;;;;5013212;28;20223;-89
2023/01/23 02:43:33;;;;;;;35.50;33.00;;;2.00;92.80;;;;;;5012958;28;20173;-90
2023/01/23 02:46:01;;;;;;;37.73;35.07;;;2.10;92.80;;;;;;5012980;28;20194;-90
2023/01/23 02:48:27;;;;;;;39.53;36.13;;;2.10;92.80;;;;;;5012915;28;20204;-90
2023/01/23 02:50:52;;;;;;;38.17;35.33;;;2.10;92.80;;;;;;5012783;28;20177;-90
2023/01/23 02:53:18;;;;;;;38.50;35.93;;;2.10;92.80;;;;;;5013296;28;20177;-90
2023/01/23 02:55:43;;;;;;;41.27;37.97;;;2.00;92.80;;;;;;5014300;28;20178;-90
2023/01/23 03:00:54;;;;;;;39.30;36.43;;;2.00;92.90;;;;;;5014350;28;20650;-90
2023/01/23 03:03:19;;;;;;;39.60;36.50;;;2.00;92.90;;;;;;5013035;28;20169;-90
2023/01/23 03:05:46;;;;;;;43.80;40.27;;;2.00;92.90;;;;;;5012646;28;20651;-89
2023/01/23 03:08:11;;;;;;;41.40;38.37;;;2.00;93.00;;;;;;5012416;28;20308;-90
2023/01/23 03:10:37;;;;;;;39.37;36.67;;;2.00;93.00;;;;;;5013072;28;20214;-90
2023/01/23 03:13:06;;;;;;;43.70;40.37;;;2.00;93.00;;;;;;5012551;28;20174;-90
2023/01/23 03:15:32;;;;;;;42.23;39.00;;;2.00;93.00;;;;;;5012598;28;20209;-90
2023/01/23 03:17:58;;;;;;;43.00;39.77;;;2.00;93.10;;;;;;5012406;28;20283;-90
2023/01/23 03:20:25;;;;;;;44.00;40.60;;;2.00;93.10;;;;;;5012448;28;20686;-90
2023/01/23 03:22:51;;;;;;;43.07;39.67;;;2.10;93.10;;;;;;5012331;28;20208;-90
2023/01/23 03:25:17;;;;;;;42.73;39.17;;;2.10;93.10;;;;;;5012377;28;20181;-90
2023/01/23 03:27:42;;;;;;;44.63;40.70;;;2.10;93.10;;;;;;5013110;28;20239;-90
2023/01/23 03:30:20;;;;;;;44.70;40.93;;;2.10;93.10;;;;;;5012998;28;20176;-90
2023/01/23 03:32:46;;;;;;;44.53;40.67;;;2.10;93.10;;;;;;5012330;28;20169;-90
2023/01/23 03:35:15;;;;;;;39.20;36.30;;;2.10;93.10;;;;;;5013551;28;20662;-90
2023/01/23 03:37:43;;;;;;;42.17;38.80;;;2.10;93.20;;;;;;5014592;28;20172;-90
2023/01/23 03:43:05;;;;;;;42.50;39.50;;;2.10;93.10;;;;;;5020161;28;20249;-90
2023/01/23 03:45:31;;;;;;;45.27;41.63;;;2.10;93.10;;;;;;5019895;28;20544;-90
2023/01/23 03:47:56;;;;;;;43.57;40.33;;;2.10;93.10;;;;;;5018573;28;20284;-90
2023/01/23 03:50:22;;;;;;;43.63;40.70;;;2.10;93.10;;;;;;5018729;28;20176;-90
2023/01/23 03:52:47;;;;;;;50.07;46.30;;;2.10;93.10;;;;;;5018636;28;20701;-90
2023/01/23 03:55:13;;;;;;;49.13;45.30;;;2.10;93.10;;;;;;5018665;28;20206;-90
2023/01/23 03:57:39;;;;;;;48.03;44.53;;;2.10;93.20;;;;;;5018928;28;20172;-90
2023/01/23 04:00:05;;;;;;;50.37;46.67;;;2.10;93.20;;;;;;5018564;28;20203;-90
2023/01/23 04:02:31;;;;;;;50.17;46.03;;;2.10;93.30;;;;;;5020250;28;20284;-90
2023/01/23 04:04:57;;;;;;;50.73;46.83;;;2.10;93.30;;;;;;5019795;28;20264;-90
2023/01/23 04:07:23;;;;;;;54.47;50.60;;;2.10;93.30;;;;;;5018921;28;20205;-89
2023/01/23 04:38:58;;;;;;;51.10;47.33;;;2.00;93.60;;;;;;3649026;22;20236;-94
2023/01/23 05:01:55;;;;;;;;;;;;;;;;;;;;;
2023/01/23 05:11:38;;;;;;;50.80;47.30;;;1.80;93.80;;;;;;5229868;22;20320;-94
2023/01/23 05:14:52;;;;;;;;;;;;;;;;;;;;;
2023/01/23 05:25:16;;;;;;;59.87;55.67;;;2.00;93.70;;;;;;4940479;28;20186;-93
2023/01/23 05:42:59;;;;;;;;;;;;;;;;;;;;;
2023/01/23 05:53:03;;;;;;;64.50;59.47;;;2.00;93.80;;;;;;4938958;29;20227;-93
2023/01/23 05:56:16;;;;;;;63.50;58.33;;;2.00;93.80;;;;;;4909116;29;20196;-93
2023/01/23 07:57:48;;;;;;;73.37;67.67;;;2.00;94.10;;;;;;4513895;22;20242;-91
2023/01/23 08:00:14;;;;;;;72.50;67.10;;;2.00;94.10;;;;;;4992482;28;20262;-91
2023/01/23 08:02:39;;;;;;;72.57;67.37;;;2.00;94.10;;;;;;4992290;28;20204;-91
2023/01/23 08:05:05;;;;;;;77.40;71.70;;;2.00;94.10;;;;;;4993886;28;20197;-92
2023/01/23 08:07:31;;;;;;;78.40;72.80;;;2.00;94.10;;;;;;4993174;28;20178;-93
2023/01/23 08:09:56;;;;;;;79.00;72.93;;;2.10;94.10;;;;;;4994300;28;20267;-93
2023/01/23 08:12:22;;;;;;;75.10;69.63;;;2.10;94.10;;;;;;5004512;23;20221;-92
2023/01/23 08:14:48;;;;;;;79.90;74.30;;;2.10;94.10;;;;;;5012330;28;20603;-93
2023/01/23 08:17:13;;;;;;;79.03;73.40;;;2.10;94.10;;;;;;4995510;28;20550;-92
2023/01/23 08:19:51;;;;;;;80.83;74.30;;;2.10;94.10;;;;;;5015322;28;20178;-93
2023/01/23 08:25:43;;;;;;;82.37;76.43;;;2.10;94.10;;;;;;4939949;29;20199;-94
2023/01/23 08:28:09;;;;;;;86.83;80.47;;;2.10;94.10;;;;;;4941163;29;20203;-94
2023/01/23 08:35:22;;;;;;;84.53;78.13;;;2.20;94.20;;;;;;4927391;29;20264;-94
2023/01/23 08:37:46;;;;;;;85.33;79.47;;;2.10;94.10;;;;;;4870157;29;20200;-93
2023/01/23 08:40:21;;;;;;;86.93;80.07;;;2.20;94.10;;;;;;4872330;29;20193;-94
2023/01/23 08:42:46;;;;;;;88.33;81.33;;;2.10;94.10;;;;;;4871563;29;20667;-92
2023/01/23 08:45:31;;;;;;;;;;;;;;;;;;;;;
2023/01/23 08:48:46;;;;;;;83.97;77.97;;;2.20;94.10;;;;;;4884472;29;20271;-94
2023/01/23 08:52:03;;;;;;;;;;;;;;;;;;;;;
2023/01/23 08:55:38;;;;;;;;;;;;;;;;;;;;;
2023/01/23 08:58:57;;;;;;;;;;;;;;;;;;;;;
2023/01/23 09:27:17;;;;;;;83.47;77.27;;;2.40;94.10;;;;;;4812269;26;20229;-93
2023/01/23 09:29:56;;;;;;;82.33;76.40;;;2.30;94.10;;;;;;4966807;28;20261;-93
2023/01/23 09:33:27;;;;;;;;;;;;;;;;;;;;;
2023/01/23 09:36:37;;;;;;;;;;;;;;;;;;;;;
2023/01/23 09:40:00;;;;;;;78.93;73.07;;;2.40;94.10;;;;;;4912065;29;20251;-94
2023/01/23 09:58:02;;;;;;;77.13;71.27;;;2.60;94.00;;;;;;5073591;22;20293;-92
2023/01/23 10:00:30;;;;;;;73.83;68.30;;;2.60;93.90;;;;;;5017115;28;20670;-92
2023/01/23 10:02:57;;;;;;;70.33;64.73;;;2.60;93.90;;;;;;5015931;28;20181;-92
2023/01/23 10:05:41;;;;;;;76.33;70.30;;;2.60;93.90;;;;;;5016443;28;20245;-92
2023/01/23 10:08:29;;;;;;;66.30;61.00;;;2.70;93.90;;;;;;5016454;28;20161;-93
2023/01/23 10:11:15;;;;;;;66.17;61.07;;;2.70;93.80;;;;;;5022228;28;20201;-93
2023/01/23 10:14:03;;;;;;;65.60;60.47;;;2.70;93.80;;;;;;5018863;28;20208;-92
2023/01/23 10:16:59;;;;;;;65.83;60.77;;;2.80;93.70;;;;;;5020877;28;20158;-92
2023/01/23 10:19:36;;;;;;;69.60;64.10;;;2.80;93.70;;;;;;5018350;28;20185;-93
2023/01/23 10:22:22;;;;;;;67.97;62.73;;;2.80;93.70;;;;;;5025352;28;20197;-92
2023/01/23 10:24:51;;;;;;;68.03;62.83;;;2.80;93.60;;;;;;5023424;28;20169;-92
2023/01/23 10:27:32;;;;;;;60.00;55.43;;;2.80;93.60;;;;;;5019546;28;20185;-92
2023/01/23 10:30:02;;;;;;;62.60;57.83;;;2.80;93.50;;;;;;5021287;28;20163;-92
2023/01/23 10:32:31;;;;;;;60.73;55.63;;;2.80;93.40;;;;;;5022860;28;20208;-92
2023/01/23 10:35:02;;;;;;;63.97;59.17;;;2.90;93.30;;;;;;5020216;28;20174;-92
2023/01/23 10:38:03;;;;;;;62.37;57.27;;;2.90;93.30;;;;;;5016928;28;20210;-91
2023/01/23 10:43:19;;;;;;;60.60;55.93;;;3.00;93.40;;;;;;5028142;28;20674;-93
2023/01/23 10:45:46;;;;;;;55.03;50.17;;;3.00;93.30;;;;;;5024822;28;20196;-92
2023/01/23 10:48:29;;;;;;;56.23;51.87;;;3.00;93.20;;;;;;5024952;28;20199;-93
2023/01/23 10:50:54;;;;;;;55.13;50.73;;;3.10;93.20;;;;;;5020115;28;20565;-92
2023/01/23 10:53:20;;;;;;;51.33;47.17;;;3.10;93.00;;;;;;5014167;28;20209;-92
2023/01/23 10:55:48;;;;;;;51.87;47.80;;;3.10;92.90;;;;;;5015757;28;20173;-88
2023/01/23 10:58:28;;;;;;;52.23;48.17;;;3.10;92.80;;;;;;5014630;28;20230;-92
2023/01/23 11:00:54;;;;;;;51.00;46.63;;;3.10;92.70;;;;;;5014297;28;20685;-91
2023/01/23 11:03:19;;;;;;;47.63;43.40;;;3.10;92.50;;;;;;5016472;28;20179;-91
2023/01/23 11:05:52;;;;;;;50.20;46.00;;;3.10;92.40;;;;;;5017366;28;20194;-91
2023/01/23 11:08:35;;;;;;;48.70;44.67;;;3.10;92.30;;;;;;5015196;28;20171;-91
2023/01/23 11:11:14;;;;;;;48.90;45.10;;;3.10;92.20;;;;;;5016695;28;20680;-91
2023/01/23 11:13:41;;;;;;;49.97;45.80;;;3.10;92.10;;;;;;5013658;28;20197;-91
2023/01/23 11:16:12;;;;;;;47.90;43.83;;;3.20;92.00;;;;;;5013349;28;20268;-92
2023/01/23 11:18:46;;;;;;;50.73;46.20;;;3.10;92.00;;;;;;5014611;28;20181;-93
2023/01/23 11:21:31;;;;;;;49.87;45.77;;;3.10;91.90;;;;;;5020214;28;20197;-91
2023/01/23 11:24:18;;;;;;;50.20;46.00;;;3.20;92.00;;;;;;5015487;28;20220;-88
2023/01/23 11:26:44;;;;;;;48.43;44.57;;;3.30;92.00;;;;;;5014349;28;20174;-92
2023/01/23 11:29:29;;;;;;;47.97;43.83;;;3.20;91.90;;;;;;5016639;28;20257;-91
2023/01/23 11:32:05;;;;;;;45.57;41.33;;;3.30;91.80;;;;;;5017618;28;20211;-92
2023/01/23 11:34:58;;;;;;;44.90;41.10;;;3.20;91.70;;;;;;5014338;28;20162;-92
2023/01/23 11:37:31;;;;;;;42.07;38.47;;;3.20;91.60;;;;;;5013615;28;20182;-90
2023/01/23 11:40:05;;;;;;;42.67;39.13;;;3.20;91.40;;;;;;5013809;28;20158;-90
2023/01/23 11:42:32;;;;;;;43.73;39.67;;;3.20;91.40;;;;;;5012656;28;20200;-90
2023/01/23 11:44:58;;;;;;;42.80;39.33;;;3.20;91.30;;;;;;5013760;28;20182;-91
2023/01/23 11:47:55;;;;;;;45.23;41.03;;;3.30;91.30;;;;;;5012983;28;20644;-91
2023/01/23 11:50:52;;;;;;;43.73;39.83;;;3.30;91.30;;;;;;5012591;28;20236;-89
2023/01/23 11:53:37;;;;;;;43.83;40.00;;;3.30;91.30;;;;;;5013319;28;20230;-90
2023/01/23 11:56:26;;;;;;;40.70;37.00;;;3.30;91.30;;;;;;5012384;28;20180;-91
2023/01/23 11:59:15;;;;;;;40.93;37.27;;;3.30;91.20;;;;;;5014077;28;20216;-91
2023/01/23 12:01:52;;;;;;;41.97;37.97;;;3.30;91.20;;;;;;5016023;28;20202;-89
2023/01/23 12:04:35;;;;;;;39.93;36.33;;;3.30;91.20;;;;;;5016000;28;20177;-89
2023/01/23 12:07:19;;;;;;;42.37;38.23;;;3.30;91.10;;;;;;5017180;28;20166;-89
2023/01/23 12:10:14;;;;;;;42.53;38.53;;;3.30;91.10;;;;;;5017375;28;20638;-92
2023/01/23 12:13:07;;;;;;;42.90;38.50;;;3.30;91.10;;;;;;5019691;28;20698;-88
2023/01/23 12:15:43;;;;;;;42.67;38.87;;;3.40;91.10;;;;;;5017498;28;20165;-86
2023/01/23 12:18:24;;;;;;;42.40;38.50;;;3.40;91.10;;;;;;5016670;28;20323;-86
2023/01/23 12:20:59;;;;;;;43.03;38.73;;;3.40;91.00;;;;;;5016881;28;20206;-88
2023/01/23 12:24:10;;;;;;;41.57;37.70;;;3.40;91.00;;;;;;5015729;28;20169;-88
2023/01/23 12:26:46;;;;;;;38.90;35.47;;;3.40;91.00;;;;;;4990593;28;20754;-90
2023/01/23 12:29:44;;;;;;;40.23;36.50;;;3.40;90.80;;;;;;5016629;28;20175;-91
2023/01/23 12:32:42;;;;;;;38.73;34.77;;;3.40;90.70;;;;;;5015952;28;20254;-92
2023/01/23 12:35:17;;;;;;;38.07;34.40;;;3.40;90.50;;;;;;5016401;28;20163;-92
2023/01/23 12:38:13;;;;;;;38.33;34.90;;;3.40;90.50;;;;;;5016917;28;20256;-91
2023/01/23 12:41:12;;;;;;;39.00;35.60;;;3.40;90.50;;;;;;5016079;28;20680;-91
2023/01/23 12:43:53;;;;;;;39.30;35.33;;;3.50;90.60;;;;;;5016461;28;20167;-90
2023/01/23 12:46:33;;;;;;;39.53;35.90;;;3.50;90.50;;;;;;5205339;22;20761;-92
2023/01/23 12:49:26;;;;;;;40.57;36.80;;;3.50;90.40;;;;;;5001874;28;20175;-93
2023/01/23 12:52:06;;;;;;;37.47;33.80;;;3.50;90.50;;;;;;5016250;28;20221;-93
2023/01/23 12:54:46;;;;;;;37.07;33.37;;;3.50;90.50;;;;;;4997339;28;20179;-90
2023/01/23 12:57:12;;;;;;;37.97;34.53;;;3.50;90.40;;;;;;4995927;28;20294;-92
2023/01/23 12:59:57;;;;;;;37.67;34.17;;;3.60;90.40;;;;;;4999494;28;20171;-93
2023/01/23 13:02:41;;;;;;;37.80;33.93;;;3.60;90.30;;;;;;4998828;28;20282;-94
2023/01/23 13:05:20;;;;;;;37.93;34.20;;;3.60;90.30;;;;;;4999107;28;20160;-91
2023/01/23 13:08:05;;;;;;;37.20;33.63;;;3.60;90.30;;;;;;4997409;28;20163;-90
2023/01/23 13:13:55;;;;;;;37.63;33.87;;;3.60;90.20;;;;;;4998765;28;20691;-93
2023/01/23 13:16:30;;;;;;;37.43;33.80;;;3.60;90.10;;;;;;4995693;28;20180;-93
2023/01/23 13:22:04;;;;;;;37.33;33.70;;;3.60;90.10;;;;;;4997263;28;20201;-93
2023/01/23 13:27:41;;;;;;;37.43;34.07;;;3.60;90.00;;;;;;5000721;28;20197;-89
2023/01/23 13:30:31;;;;;;;38.53;34.93;;;3.60;90.00;;;;;;4995905;28;20204;-90
2023/01/23 13:33:29;;;;;;;37.73;34.30;;;3.70;90.10;;;;;;4996556;28;20625;-91
2023/01/23 13:36:12;;;;;;;39.27;35.40;;;3.70;90.20;;;;;;4994822;28;20265;-90
2023/01/23 13:38:41;;;;;;;39.80;36.50;;;3.60;90.20;;;;;;4996654;28;20170;-90
2023/01/23 13:41:07;;;;;;;38.83;35.10;;;3.70;90.40;;;;;;4994834;28;20233;-90
2023/01/23 13:44:02;;;;;;;39.07;35.37;;;3.70;90.40;;;;;;4997211;28;20176;-92
2023/01/23 13:47:05;;;;;;;37.77;34.37;;;3.70;90.40;;;;;;4995380;28;20263;-90
2023/01/23 13:49:52;;;;;;;40.20;36.20;;;3.70;90.20;;;;;;4995643;28;20176;-90
2023/01/23 13:58:19;;;;;;;39.40;35.77;;;3.70;90.20;;;;;;4996165;28;20656;-89
2023/01/23 14:07:02;;;;;;;38.93;35.20;;;3.60;90.40;;;;;;4995829;28;20238;-88
2023/01/23 14:09:30;;;;;;;38.60;35.00;;;3.60;90.40;;;;;;4995354;28;20702;-90
2023/01/23 14:12:01;;;;;;;37.90;34.37;;;3.60;90.50;;;;;;4993946;28;20202;-89
2023/01/23 14:17:17;;;;;;;38.07;34.47;;;3.60;90.60;;;;;;4995723;28;20582;-90
2023/01/23 14:20:00;;;;;;;40.40;36.70;;;3.60;90.50;;;;;;4993787;28;20179;-89
2023/01/23 14:22:27;;;;;;;38.87;34.80;;;3.50;90.50;;;;;;4994696;28;20198;-90
2023/01/23 14:24:54;;;;;;;38.33;34.53;;;3.50;90.60;;;;;;4994987;28;20171;-89
2023/01/23 14:27:32;;;;;;;39.57;35.90;;;3.50;90.60;;;;;;4995030;28;20174;-90
2023/01/23 14:30:11;;;;;;;40.57;36.57;;;3.50;90.60;;;;;;4995236;28;20161;-89
2023/01/23 14:32:37;;;;;;;41.87;38.07;;;3.50;90.80;;;;;;4994836;28;20230;-88
2023/01/23 14:35:22;;;;;;;41.20;37.63;;;3.60;90.90;;;;;;4994818;28;20648;-91
2023/01/23 14:37:48;;;;;;;41.07;37.37;;;3.60;90.90;;;;;;4994850;28;20262;-89
2023/01/23 14:40:19;;;;;;;42.00;38.20;;;3.60;90.80;;;;;;4993510;28;20180;-89
2023/01/23 14:42:44;;;;;;;41.83;38.17;;;3.60;90.90;;;;;;4996373;28;20189;-91
2023/01/23 14:45:13;;;;;;;41.97;38.33;;;3.50;90.90;;;;;;4999008;28;20187;-91
2023/01/23 14:47:44;;;;;;;45.90;41.37;;;3.50;91.00;;;;;;4993796;28;20193;-91
2023/01/23 14:50:24;;;;;;;45.80;41.67;;;3.50;91.10;;;;;;4993644;28;20188;-90
2023/01/23 14:53:00;;;;;;;46.10;42.03;;;3.50;91.20;;;;;;4993221;28;20198;-90
2023/01/23 14:55:28;;;;;;;44.07;40.10;;;3.50;91.20;;;;;;4993196;28;20173;-90
2023/01/23 14:57:57;;;;;;;42.43;38.60;;;3.50;91.20;;;;;;4993180;28;20218;-90
2023/01/23 15:00:24;;;;;;;43.73;39.83;;;3.40;91.20;;;;;;4993845;28;20237;-88
2023/01/23 15:02:49;;;;;;;43.73;39.63;;;3.40;91.20;;;;;;4993332;28;20199;-90
2023/01/23 15:05:28;;;;;;;45.50;41.70;;;3.40;91.20;;;;;;4993051;28;20601;-90
2023/01/23 15:08:02;;;;;;;44.23;40.33;;;3.40;91.30;;;;;;4993079;28;20201;-90
2023/01/23 15:10:33;;;;;;;44.90;40.43;;;3.40;91.40;;;;;;4992989;28;20215;-89
2023/01/23 15:13:10;;;;;;;43.53;39.47;;;3.40;91.40;;;;;;4993378;28;20240;-90
2023/01/23 15:15:36;;;;;;;43.37;39.47;;;3.30;91.40;;;;;;4994510;28;20158;-90
2023/01/23 15:18:14;;;;;;;43.73;39.37;;;3.40;91.40;;;;;;4992991;28;20273;-90
2023/01/23 15:20:40;;;;;;;43.87;39.70;;;3.30;91.40;;;;;;4993145;28;20739;-90
2023/01/23 15:23:34;;;;;;;44.40;39.80;;;3.30;91.40;;;;;;4993516;28;20177;-88
2023/01/23 15:26:24;;;;;;;45.83;41.30;;;3.40;91.50;;;;;;4990412;28;20190;-90
2023/01/23 15:28:59;;;;;;;45.83;41.73;;;3.40;91.50;;;;;;4993820;28;20183;-91
2023/01/23 15:31:27;;;;;;;42.23;38.13;;;3.40;91.50;;;;;;4992751;28;20205;-91
2023/01/23 15:33:54;;;;;;;41.70;37.80;;;3.50;91.60;;;;;;4992364;28;20646;-91
2023/01/23 15:36:29;;;;;;;41.10;37.17;;;3.40;91.50;;;;;;4994099;28;20174;-91
2023/01/23 15:38:57;;;;;;;42.17;38.37;;;3.30;91.30;;;;;;5046892;23;20229;-91
2023/01/23 15:41:43;;;;;;;40.47;36.57;;;3.30;91.20;;;;;;5013294;28;20245;-91
2023/01/23 15:44:14;;;;;;;42.90;38.90;;;3.30;91.20;;;;;;5012450;28;20162;-90
2023/01/23 15:46:41;;;;;;;40.00;36.50;;;3.30;91.20;;;;;;5012227;28;20656;-91
2023/01/23 15:49:06;;;;;;;40.53;36.83;;;3.30;91.20;;;;;;5012355;28;20199;-90
2023/01/23 15:51:32;;;;;;;40.37;36.47;;;3.30;91.10;;;;;;5012154;28;20174;-91
2023/01/23 15:53:58;;;;;;;41.17;37.57;;;3.30;91.10;;;;;;5012335;28;20321;-91
2023/01/23 15:56:28;;;;;;;42.13;38.07;;;3.30;91.10;;;;;;5012297;28;20200;-91
2023/01/23 15:58:53;;;;;;;40.17;36.37;;;3.30;91.10;;;;;;5012186;28;20606;-90
2023/01/23 16:01:19;;;;;;;38.47;35.10;;;3.30;91.20;;;;;;5012103;28;20178;-91
2023/01/23 16:03:45;;;;;;;39.93;35.80;;;3.30;91.10;;;;;;5012384;28;20181;-91
2023/01/23 16:06:19;;;;;;;38.77;34.70;;;3.30;91.10;;;;;;5012110;28;20221;-91
2023/01/23 16:08:46;;;;;;;38.10;34.20;;;3.30;91.20;;;;;;5012152;28;20201;-91
2023/01/23 16:11:11;;;;;;;39.03;35.53;;;3.30;91.20;;;;;;5012906;28;20184;-90
2023/01/23 16:13:37;;;;;;;39.97;36.37;;;3.30;91.20;;;;;;5012279;28;20206;-91
2023/01/23 16:16:02;;;;;;;43.87;39.13;;;3.30;91.20;;;;;;5012441;28;20181;-90
2023/01/23 16:18:30;;;;;;;41.33;37.33;;;3.30;91.30;;;;;;5011949;28;20206;-91
2023/01/23 16:20:56;;;;;;;40.93;37.17;;;3.30;91.30;;;;;;5011982;28;20698;-91
2023/01/23 16:23:25;;;;;;;37.30;33.93;;;3.30;91.30;;;;;;5012133;28;20177;-90
2023/01/23 16:25:51;;;;;;;37.97;34.33;;;3.30;91.40;;;;;;5011859;28;20272;-90
2023/01/23 16:28:20;;;;;;;35.30;31.80;;;3.50;91.50;;;;;;5011693;28;20643;-91
2023/01/23 16:30:47;;;;;;;36.23;32.63;;;3.50;91.30;;;;;;5012836;28;20601;-90
2023/01/23 16:33:12;;;;;;;38.23;34.53;;;3.50;91.00;;;;;;5011934;28;20256;-90
2023/01/23 16:35:39;;;;;;;36.47;32.97;;;3.40;91.00;;;;;;5011788;28;20575;-90
2023/01/23 16:38:05;;;;;;;35.90;32.33;;;3.50;91.10;;;;;;5011870;28;20211;-91
2023/01/23 16:40:31;;;;;;;38.67;34.63;;;3.60;91.10;;;;;;5011668;28;20177;-90
2023/01/23 16:42:58;;;;;;;38.80;34.67;;;3.50;90.80;;;;;;5012389;28;20636;-90
2023/01/23 16:45:29;;;;;;;40.53;35.47;;;3.40;90.80;;;;;;5012893;28;20177;-90
2023/01/23 16:47:55;;;;;;;40.83;36.80;;;3.40;90.70;;;;;;5015134;28;20196;-90
2023/01/23 16:50:32;;;;;;;40.70;36.70;;;3.30;90.70;;;;;;5015093;28;20192;-90
2023/01/23 16:53:06;;;;;;;41.70;37.50;;;3.20;90.80;;;;;;5015251;28;20197;-91
2023/01/23 16:55:35;;;;;;;39.20;35.53;;;3.20;90.90;;;;;;5015271;28;20301;-90
2023/01/23 16:58:03;;;;;;;47.00;42.37;;;3.20;91.00;;;;;;5014702;28;20418;-90
2023/01/23 17:00:29;;;;;;;42.73;38.50;;;3.10;91.10;;;;;;5015066;28;20495;-90
2023/01/23 17:02:58;;;;;;;48.25;43.88;;;3.10;91.20;;;;;;5014464;28;20502;-90
2023/01/23 17:05:24;;;;;;;45.10;40.77;;;3.30;91.40;;;;;;5014981;28;20559;-90
2023/01/23 17:07:49;;;;;;;45.60;41.20;;;3.30;91.30;;;;;;5014946;28;20198;-90
2023/01/23 17:10:19;;;;;;;43.87;39.60;;;3.20;91.20;;;;;;5014926;28;20256;-91
2023/01/23 17:12:47;;;;;;;44.57;40.47;;;3.10;91.20;;;;;;5015577;28;20220;-91
2023/01/23 17:15:25;;;;;;;44.80;40.47;;;3.10;91.30;;;;;;5014914;28;20173;-91
2023/01/23 17:17:54;;;;;;;44.90;40.73;;;3.10;91.40;;;;;;5014736;28;20205;-91
2023/01/23 17:20:20;;;;;;;43.10;39.10;;;3.10;91.50;;;;;;5015531;28;20182;-90
2023/01/23 17:22:46;;;;;;;43.57;38.67;;;3.10;91.50;;;;;;5014616;28;20178;-90
2023/01/23 17:25:14;;;;;;;43.27;38.77;;;3.10;91.50;;;;;;5014602;28;20729;-90
2023/01/23 17:27:40;;;;;;;44.20;39.80;;;3.10;91.50;;;;;;5014544;28;20197;-90
2023/01/23 17:30:06;;;;;;;44.57;40.07;;;3.10;91.50;;;;;;5014398;28;20715;-90
2023/01/23 17:32:37;;;;;;;44.67;40.37;;;3.10;91.60;;;;;;5014391;28;20242;-90
2023/01/23 17:35:07;;;;;;;45.70;41.37;;;3.20;91.70;;;;;;5015203;28;20176;-90
2023/01/23 17:37:33;;;;;;;45.20;40.60;;;3.40;91.80;;;;;;5014229;28;20202;-90
2023/01/23 17:39:59;;;;;;;45.80;39.87;;;3.40;91.70;;;;;;5014273;28;20280;-90
2023/01/23 17:42:24;;;;;;;43.80;39.10;;;3.30;91.50;;;;;;5014854;28;20610;-90
2023/01/23 17:44:50;;;;;;;42.27;37.60;;;3.20;91.50;;;;;;5014278;28;20238;-91
2023/01/23 17:47:16;;;;;;;40.93;36.90;;;3.30;91.60;;;;;;5014279;28;20246;-90
2023/01/23 17:50:00;;;;;;;41.83;37.47;;;3.30;91.40;;;;;;5014996;28;20270;-91
2023/01/23 17:52:28;;;;;;;43.10;38.40;;;3.20;91.20;;;;;;5014251;28;20198;-90
2023/01/23 17:54:54;;;;;;;43.27;37.87;;;3.20;91.00;;;;;;5014560;28;20170;-90
2023/01/23 17:57:20;;;;;;;43.30;39.23;;;3.20;91.00;;;;;;5013216;28;20204;-91
2023/01/23 17:59:45;;;;;;;43.17;38.87;;;3.10;91.00;;;;;;5015250;28;20180;-90
2023/01/23 18:02:38;;;;;;;42.87;38.10;;;3.10;91.00;;;;;;5014724;28;20193;-91
2023/01/23 18:05:04;;;;;;;44.63;40.23;;;3.10;91.10;;;;;;5013081;28;20553;-91
2023/01/23 18:07:30;;;;;;;43.93;39.43;;;3.10;91.10;;;;;;5014188;28;20413;-91
2023/01/23 18:09:55;;;;;;;45.33;40.43;;;3.10;91.20;;;;;;5013745;28;20200;-89